Time,TemperatureF,DewpointF,PressureIn,WindDirection,WindDirectionDegrees,WindSpeedMPH,WindSpeedGustMPH,Humidity,HourlyPrecipIn,Conditions,Clouds,dailyrainin,SoftwareType,DateUTC
2013-11-01 00:00:00,43.2,42.6,29.29,WNW,292,0.0,7.4,98,0.00,,SKC,0.00,VWS V14.01,2013-11-01 05:00:00,
2013-11-01 00:20:00,42.8,42.3,29.29,SSW,202,0.0,0.0,98,0.00,,SKC,0.00,VWS V14.01,2013-11-01 05:20:00,
2013-11-01 00:40:00,42.4,41.9,29.29,WNW,292,0.0,9.4,98,0.00,,SKC,0.00,VWS V14.01,2013-11-01 05:40:00,
2013-11-01 01:00:00,42.3,41.7,29.29,NW,315,0.0,7.4,98,0.00,,SKC,0.00,VWS V14.01,2013-11-01 06:00:00,
2013-11-01 01:20:00,41.9,41.4,29.32,West,270,0.0,5.5,98,0.00,,SKC,0.00,VWS V14.01,2013-11-01 06:20:00,
2013-11-01 01:40:00,41.5,41.0,29.32,NW,315,2.8,9.4,98,0.00,,SKC,0.00,VWS V14.01,2013-11-01 06:40:00,
2013-11-01 02:00:00,41.2,40.7,29.32,NNW,338,0.0,7.0,98,0.04,,SKC,0.04,VWS V14.01,2013-11-01 07:00:00,
2013-11-01 02:20:00,41.0,40.5,29.32,WNW,292,0.0,7.8,98,0.04,,SKC,0.04,VWS V14.01,2013-11-01 07:20:00,
2013-11-01 02:40:00,41.0,40.5,29.32,SSW,202,0.0,7.4,98,0.04,,SKC,0.04,VWS V14.01,2013-11-01 07:40:00,
2013-11-01 03:00:00,40.6,40.1,29.32,WNW,292,0.0,9.8,98,0.04,,SKC,0.04,VWS V14.01,2013-11-01 08:00:00,
2013-11-01 03:20:00,40.5,39.9,29.35,WNW,292,0.0,9.8,98,0.00,,SKC,0.04,VWS V14.01,2013-11-01 08:20:00,
2013-11-01 03:40:00,40.5,39.9,29.35,WSW,248,0.0,8.6,98,0.00,,SKC,0.04,VWS V14.01,2013-11-01 08:40:00,
2013-11-01 04:00:00,40.3,39.8,29.35,WNW,292,0.0,7.8,98,0.00,,SKC,0.04,VWS V14.01,2013-11-01 09:00:00,
2013-11-01 04:20:00,39.9,39.4,29.35,SSE,158,2.3,9.8,98,0.00,,SKC,0.04,VWS V14.01,2013-11-01 09:20:00,
2013-11-01 04:40:00,39.7,39.2,29.35,SW,225,0.0,6.7,98,0.00,,SKC,0.04,VWS V14.01,2013-11-01 09:40:00,
2013-11-01 05:00:00,39.7,39.2,29.38,WSW,248,0.0,8.6,98,0.00,,SKC,0.04,VWS V14.01,2013-11-01 10:00:00,
2013-11-01 05:20:00,39.7,39.2,29.41,SSW,202,0.0,8.2,98,0.00,,SKC,0.04,VWS V14.01,2013-11-01 10:20:00,
2013-11-01 05:40:00,39.7,39.2,29.38,SSW,202,0.0,6.3,98,0.00,,SKC,0.04,VWS V14.01,2013-11-01 10:40:00,
2013-11-01 06:00:00,39.6,39.0,29.41,WNW,292,0.0,0.0,98,0.00,,SKC,0.04,VWS V14.01,2013-11-01 11:00:00,
2013-11-01 06:20:00,39.6,39.0,29.41,SSW,202,0.0,0.0,98,0.00,,SKC,0.04,VWS V14.01,2013-11-01 11:20:00,
2013-11-01 06:40:00,39.6,39.0,29.44,SSW,202,0.0,0.0,98,0.00,,SKC,0.04,VWS V14.01,2013-11-01 11:40:00,
2013-11-01 07:00:00,39.4,38.9,29.41,South,180,0.0,0.0,98,0.00,,SKC,0.04,VWS V14.01,2013-11-01 12:00:00,
2013-11-01 07:20:00,39.2,38.7,29.44,SSW,202,0.0,0.0,98,0.00,,SKC,0.04,VWS V14.01,2013-11-01 12:20:00,
2013-11-01 07:40:00,39.0,38.5,29.44,WSW,248,0.0,6.7,98,0.00,,SKC,0.04,VWS V14.01,2013-11-01 12:40:00,
2013-11-01 08:00:00,38.8,38.3,29.44,WSW,248,0.0,0.0,98,0.00,,SKC,0.04,VWS V14.01,2013-11-01 13:00:00,
2013-11-01 08:20:00,39.0,38.5,29.44,SSW,202,0.0,0.0,98,0.00,,SKC,0.04,VWS V14.01,2013-11-01 13:20:00,
2013-11-01 08:40:00,39.0,38.5,29.47,SSE,158,0.0,5.1,98,0.00,,SKC,0.04,VWS V14.01,2013-11-01 13:40:00,
2013-11-01 09:00:00,39.2,38.7,29.47,WNW,292,0.0,5.1,98,0.00,,SKC,0.04,VWS V14.01,2013-11-01 14:00:00,
2013-11-01 09:40:00,39.6,39.0,29.47,SSW,202,0.0,0.0,98,0.00,,SKC,0.04,VWS V14.01,2013-11-01 14:40:00,
2013-11-01 10:00:00,39.9,39.4,29.47,West,270,0.0,2.3,98,0.00,,SKC,0.04,VWS V14.01,2013-11-01 15:00:00,
2013-11-01 10:20:00,40.5,39.9,29.50,WNW,292,0.0,5.9,98,0.00,,SKC,0.04,VWS V14.01,2013-11-01 15:20:00,
2013-11-01 10:40:00,41.0,40.5,29.50,SSW,202,0.0,5.1,98,0.00,,SKC,0.04,VWS V14.01,2013-11-01 15:40:00,
2013-11-01 11:00:00,41.0,40.5,29.50,SSE,158,0.0,5.5,98,0.00,,SKC,0.04,VWS V14.01,2013-11-01 16:00:00,
2013-11-01 11:20:00,40.8,40.3,29.50,SSW,202,0.0,6.7,98,0.00,,SKC,0.04,VWS V14.01,2013-11-01 16:20:00,
2013-11-01 11:40:00,40.8,40.3,29.50,South,180,0.0,4.7,98,0.00,,SKC,0.04,VWS V14.01,2013-11-01 16:40:00,
2013-11-01 12:20:00,41.0,40.5,29.53,WNW,292,0.0,0.0,98,0.00,,SKC,0.04,VWS V14.01,2013-11-01 17:20:00,
2013-11-01 12:40:00,41.2,40.7,29.53,SSW,202,0.0,0.0,98,0.00,,SKC,0.04,VWS V14.01,2013-11-01 17:40:00,
2013-11-01 13:00:00,41.0,40.5,29.53,South,180,0.0,7.4,98,0.00,,SKC,0.04,VWS V14.01,2013-11-01 18:00:00,
2013-11-01 13:20:00,40.8,40.3,29.53,SSE,158,0.0,2.7,98,0.00,,SKC,0.04,VWS V14.01,2013-11-01 18:20:00,
2013-11-01 13:40:00,40.6,40.1,29.56,SSE,158,0.0,6.3,98,0.00,,SKC,0.04,VWS V14.01,2013-11-01 18:40:00,
2013-11-01 14:00:00,40.8,40.3,29.56,SSE,158,0.0,3.9,98,0.00,,SKC,0.04,VWS V14.01,2013-11-01 19:00:00,
2013-11-01 14:20:00,40.6,40.1,29.56,WSW,248,2.3,5.1,98,0.00,,SKC,0.04,VWS V14.01,2013-11-01 19:20:00,
2013-11-01 14:40:00,40.3,39.8,29.56,NNW,338,0.0,8.2,98,0.00,,SKC,0.04,VWS V14.01,2013-11-01 19:40:00,
2013-11-01 15:00:00,39.9,39.4,29.56,SSW,202,1.5,7.8,98,0.00,,SKC,0.04,VWS V14.01,2013-11-01 20:00:00,
2013-11-01 15:20:00,39.7,39.2,29.59,WNW,292,4.1,6.7,98,0.00,,SKC,0.04,VWS V14.01,2013-11-01 20:20:00,
2013-11-01 15:40:00,39.6,38.5,29.59,ESE,112,0.0,8.2,96,0.00,,SKC,0.04,VWS V14.01,2013-11-01 20:40:00,
2013-11-01 16:00:00,39.6,38.8,29.59,SSW,202,0.0,3.5,97,0.00,,SKC,0.04,VWS V14.01,2013-11-01 21:00:00,
2013-11-01 16:20:00,39.4,38.6,29.62,SW,225,0.0,5.9,97,0.00,,SKC,0.04,VWS V14.01,2013-11-01 21:20:00,
2013-11-01 16:40:00,39.4,38.6,29.62,SSE,158,0.0,3.5,97,0.00,,SKC,0.04,VWS V14.01,2013-11-01 21:40:00,
2013-11-01 17:00:00,39.2,38.2,29.62,SSW,202,1.0,5.1,96,0.00,,SKC,0.04,VWS V14.01,2013-11-01 22:00:00,
2013-11-01 17:20:00,39.0,38.0,29.65,ESE,112,0.0,5.1,96,0.00,,SKC,0.04,VWS V14.01,2013-11-01 22:20:00,
2013-11-01 17:40:00,38.8,37.8,29.65,NW,315,0.0,5.5,96,0.00,,SKC,0.04,VWS V14.01,2013-11-01 22:40:00,
2013-11-01 20:20:00,37.0,36.5,29.71,WSW,248,0.0,4.3,98,0.00,,SKC,0.04,VWS V14.01,2013-11-02 01:20:00,
2013-11-01 20:40:00,36.9,36.3,29.71,WNW,292,0.0,7.4,98,0.00,,SKC,0.04,VWS V14.01,2013-11-02 01:40:00,
2013-11-01 21:00:00,36.9,36.3,29.71,WSW,248,0.0,0.0,98,0.00,,SKC,0.04,VWS V14.01,2013-11-02 02:00:00,
2013-11-01 21:20:00,36.9,36.3,29.71,SE,135,0.0,5.1,98,0.00,,SKC,0.04,VWS V14.01,2013-11-02 02:20:00,
2013-11-01 21:40:00,37.0,36.5,29.74,SSW,202,0.0,0.0,98,0.00,,SKC,0.04,VWS V14.01,2013-11-02 02:40:00,
2013-11-01 22:00:00,36.3,35.8,29.71,SSE,158,0.0,0.0,98,0.00,,SKC,0.04,VWS V14.01,2013-11-02 03:00:00,
2013-11-01 22:20:00,35.2,34.7,29.74,SSE,158,0.0,0.0,98,0.00,,SKC,0.04,VWS V14.01,2013-11-02 03:20:00,
2013-11-01 22:40:00,34.3,33.8,29.74,SSE,158,0.0,0.0,98,0.00,,SKC,0.04,VWS V14.01,2013-11-02 03:40:00,
2013-11-01 23:00:00,34.2,33.7,29.74,SSE,158,0.0,0.0,98,0.00,,SKC,0.04,VWS V14.01,2013-11-02 04:00:00,
2013-11-01 23:20:00,34.2,33.7,29.74,SSE,158,0.0,0.0,98,0.00,,SKC,0.04,VWS V14.01,2013-11-02 04:20:00,
2013-11-01 23:40:00,34.0,33.5,29.74,SSE,158,0.0,0.0,98,0.00,,SKC,0.04,VWS V14.01,2013-11-02 04:40:00,